Time;durP1;ratioP1;P1;durP2;ratioP2;P2;SDS_P1;SDS_P2;PMS_P1;PMS_P2;Temp;Humidity;BMP_temperature;BMP_pressure;BME280_temperature;BME280_humidity;BME280_pressure;Samples;Min_cycle;Max_cycle;Signal;HPM_P1;HPM_P2
2022/05/22 00:01:57;;;;;;;7.80;3.17;;;13.80;89.10;;;;;;5032400;28;20492;-86
2022/05/22 00:04:24;;;;;;;9.60;3.60;;;13.80;89.30;;;;;;4999030;28;20363;-86
2022/05/22 00:06:50;;;;;;;12.32;3.33;;;13.70;89.50;;;;;;5015088;28;20025;-77
2022/05/22 00:09:16;;;;;;;10.30;3.75;;;13.70;89.80;;;;;;5016111;28;20034;-77
2022/05/22 00:11:42;;;;;;;10.82;3.78;;;13.70;90.00;;;;;;5016283;28;20536;-77
2022/05/22 00:14:11;;;;;;;8.80;3.22;;;13.60;90.10;;;;;;4998465;28;20022;-77
2022/05/22 00:16:41;;;;;;;10.63;3.25;;;13.60;90.30;;;;;;5016067;28;20029;-77
2022/05/22 00:19:27;;;;;;;9.27;3.33;;;13.60;90.40;;;;;;5014743;28;20030;-78
2022/05/22 00:21:53;;;;;;;8.82;3.30;;;13.60;90.60;;;;;;5015899;28;20385;-77
2022/05/22 00:24:22;;;;;;;11.43;3.70;;;13.60;90.60;;;;;;4998417;28;20058;-77
2022/05/22 00:26:48;;;;;;;9.15;2.90;;;13.50;90.70;;;;;;4998270;28;20018;-77
2022/05/22 00:29:14;;;;;;;8.27;3.53;;;13.50;91.20;;;;;;5015646;28;20034;-77
2022/05/22 00:31:42;;;;;;;7.72;3.38;;;13.50;91.10;;;;;;4998057;28;20026;-77
2022/05/22 00:34:08;;;;;;;9.43;3.92;;;13.50;91.30;;;;;;4998038;28;20105;-77
2022/05/22 00:36:34;;;;;;;11.05;3.20;;;13.50;91.40;;;;;;5015718;28;20065;-77
2022/05/22 00:38:59;;;;;;;10.80;3.53;;;13.40;91.50;;;;;;4998215;28;20124;-77
2022/05/22 00:41:25;;;;;;;13.20;4.45;;;13.40;91.70;;;;;;5015114;28;20081;-77
2022/05/22 00:43:53;;;;;;;15.98;4.18;;;13.40;91.70;;;;;;5014617;28;20029;-77
2022/05/22 00:46:21;;;;;;;8.57;3.35;;;13.40;91.80;;;;;;4997815;28;20127;-77
2022/05/22 00:48:50;;;;;;;8.70;3.30;;;13.30;91.80;;;;;;4998432;28;20490;-77
2022/05/22 00:51:41;;;;;;;9.55;3.33;;;13.30;91.90;;;;;;5014125;28;20029;-77
2022/05/22 00:54:12;;;;;;;8.73;3.00;;;13.20;92.00;;;;;;4997239;28;20046;-77
2022/05/22 00:56:48;;;;;;;7.00;3.03;;;13.20;92.10;;;;;;5015277;28;20022;-77
2022/05/22 00:59:20;;;;;;;8.23;2.83;;;13.20;92.30;;;;;;5014251;28;20386;-76
2022/05/22 01:01:48;;;;;;;7.88;2.50;;;13.10;92.30;;;;;;4997620;28;20022;-77
2022/05/22 01:04:20;;;;;;;7.57;3.30;;;13.10;92.40;;;;;;4998142;28;20180;-77
2022/05/22 01:06:46;;;;;;;9.68;3.38;;;13.00;92.40;;;;;;5030517;28;20025;-77
2022/05/22 01:09:12;;;;;;;9.13;3.38;;;13.00;92.50;;;;;;5030143;28;20368;-77
2022/05/22 01:11:38;;;;;;;8.27;3.38;;;13.00;92.60;;;;;;5030202;28;20133;-77
2022/05/22 01:14:09;;;;;;;9.48;2.50;;;12.90;92.70;;;;;;4997330;28;20018;-77
2022/05/22 01:16:35;;;;;;;12.43;3.20;;;12.90;92.80;;;;;;5015338;28;20435;-77
2022/05/22 01:19:08;;;;;;;11.30;3.28;;;12.90;92.80;;;;;;4997936;28;20068;-77
2022/05/22 01:21:34;;;;;;;12.30;4.05;;;12.80;92.90;;;;;;5013363;28;20080;-77
2022/05/22 01:23:59;;;;;;;9.25;3.78;;;12.80;93.00;;;;;;4997143;28;20044;-77
2022/05/22 01:26:27;;;;;;;9.25;3.03;;;12.80;93.30;;;;;;4997027;28;20124;-77
2022/05/22 01:28:53;;;;;;;8.50;3.70;;;12.70;93.10;;;;;;5014560;28;20386;-77
2022/05/22 01:31:18;;;;;;;10.63;3.95;;;12.70;93.20;;;;;;5013418;28;20062;-77
2022/05/22 01:33:45;;;;;;;10.27;3.78;;;12.70;93.30;;;;;;4997297;28;20045;-77
2022/05/22 01:36:11;;;;;;;9.27;3.42;;;12.60;93.40;;;;;;5030047;28;20463;-77
2022/05/22 01:38:37;;;;;;;9.75;3.47;;;12.70;93.50;;;;;;5013122;28;20030;-77
2022/05/22 01:41:03;;;;;;;8.63;4.05;;;12.50;93.60;;;;;;5013257;28;20056;-77
2022/05/22 01:43:29;;;;;;;11.77;4.47;;;12.50;93.70;;;;;;5014731;28;20030;-77
2022/05/22 01:45:55;;;;;;;7.18;3.33;;;12.50;94.00;;;;;;4996726;28;20040;-77
2022/05/22 01:48:21;;;;;;;10.90;4.05;;;12.50;94.20;;;;;;4996613;28;20390;-77
2022/05/22 01:50:48;;;;;;;9.35;4.65;;;12.40;94.30;;;;;;5029311;28;20107;-77
2022/05/22 01:53:16;;;;;;;9.40;3.83;;;12.40;94.40;;;;;;5013922;28;20112;-77
2022/05/22 01:55:42;;;;;;;11.05;4.55;;;12.40;94.50;;;;;;5013139;28;20482;-77
2022/05/22 01:58:08;;;;;;;12.13;4.22;;;12.30;94.80;;;;;;5013023;28;20024;-77
2022/05/22 02:00:35;;;;;;;9.82;3.55;;;12.20;94.60;;;;;;4996514;28;20022;-77
2022/05/22 02:03:01;;;;;;;9.48;4.32;;;12.30;95.00;;;;;;4996773;28;20144;-85
2022/05/22 02:05:27;;;;;;;11.00;3.92;;;12.30;94.80;;;;;;4996973;28;20501;-85
2022/05/22 02:10:38;;;;;;;10.02;3.90;;;12.20;94.90;;;;;;5014334;28;20421;-85
2022/05/22 02:13:04;;;;;;;13.00;4.18;;;12.20;95.00;;;;;;5013481;28;20026;-85
2022/05/22 02:15:31;;;;;;;12.38;4.40;;;12.20;95.10;;;;;;5012921;28;20025;-85
2022/05/22 02:17:57;;;;;;;7.35;4.07;;;12.20;95.10;;;;;;4996611;28;20071;-85
2022/05/22 02:20:23;;;;;;;9.30;4.18;;;12.10;95.10;;;;;;4996572;28;20049;-85
2022/05/22 02:22:55;;;;;;;11.23;4.30;;;12.10;95.50;;;;;;5014610;28;20026;-87
2022/05/22 02:25:25;;;;;;;10.43;4.68;;;12.10;95.30;;;;;;4996316;28;20029;-85
2022/05/22 02:27:51;;;;;;;8.50;4.32;;;12.10;95.40;;;;;;5014155;28;20033;-85
2022/05/22 02:30:21;;;;;;;13.20;4.07;;;12.00;95.40;;;;;;5013823;28;20030;-84
2022/05/22 02:32:47;;;;;;;12.25;4.45;;;12.00;95.50;;;;;;5013935;28;20026;-85
2022/05/22 02:35:14;;;;;;;11.93;4.05;;;12.00;95.50;;;;;;5012654;28;20026;-85
2022/05/22 02:37:44;;;;;;;9.38;4.15;;;12.00;95.60;;;;;;4996634;28;20029;-85
2022/05/22 02:40:12;;;;;;;13.13;4.38;;;12.00;95.70;;;;;;5013710;28;20104;-86
2022/05/22 02:42:43;;;;;;;8.27;4.13;;;11.90;95.80;;;;;;4996374;28;20026;-87
2022/05/22 02:45:10;;;;;;;9.60;4.13;;;11.90;95.80;;;;;;4996711;28;20029;-85
2022/05/22 02:47:37;;;;;;;11.10;4.78;;;11.90;95.90;;;;;;4996329;28;20041;-86
2022/05/22 02:50:04;;;;;;;12.15;4.65;;;11.90;96.00;;;;;;4996097;28;20029;-86
2022/05/22 02:52:30;;;;;;;9.70;4.38;;;11.80;96.10;;;;;;4996050;28;20041;-86
2022/05/22 02:54:56;;;;;;;9.60;5.25;;;11.80;96.10;;;;;;5012493;28;20390;-86
2022/05/22 02:57:22;;;;;;;12.02;4.50;;;11.90;96.30;;;;;;5012466;28;20026;-86
2022/05/22 02:59:49;;;;;;;8.88;4.55;;;11.80;96.60;;;;;;5012995;28;20029;-86
2022/05/22 03:02:15;;;;;;;12.25;4.30;;;11.80;96.40;;;;;;4996018;28;20026;-86
2022/05/22 03:04:41;;;;;;;10.10;4.40;;;11.80;96.50;;;;;;4998936;28;20029;-86
2022/05/22 03:07:08;;;;;;;10.98;5.28;;;11.80;96.50;;;;;;5016427;28;20026;-86
2022/05/22 03:09:37;;;;;;;12.02;4.72;;;11.70;96.50;;;;;;4999991;28;20022;-86
2022/05/22 03:12:15;;;;;;;11.23;4.80;;;11.70;96.60;;;;;;5017701;28;20101;-87
2022/05/22 03:14:57;;;;;;;11.82;5.00;;;11.70;96.60;;;;;;5017898;28;20019;-86
2022/05/22 03:17:24;;;;;;;8.95;5.07;;;11.70;96.70;;;;;;5016760;28;20068;-87
2022/05/22 03:19:50;;;;;;;12.27;4.90;;;11.70;96.70;;;;;;4999769;28;20030;-86
2022/05/22 03:22:16;;;;;;;9.45;4.50;;;11.60;96.70;;;;;;5017463;28;20057;-87
2022/05/22 03:24:42;;;;;;;12.23;5.45;;;11.60;96.80;;;;;;4999779;28;20026;-86
2022/05/22 03:27:11;;;;;;;12.82;5.68;;;11.60;96.80;;;;;;5032818;28;20030;-86
2022/05/22 03:29:41;;;;;;;10.90;5.28;;;11.60;96.90;;;;;;4999552;28;20494;-86
2022/05/22 03:32:07;;;;;;;10.82;5.38;;;11.60;97.00;;;;;;4999599;28;20018;-86
2022/05/22 03:34:34;;;;;;;11.15;5.18;;;11.50;97.00;;;;;;4999613;28;20033;-86
2022/05/22 03:36:59;;;;;;;11.20;5.30;;;11.50;97.00;;;;;;5016140;28;20026;-86
2022/05/22 03:39:26;;;;;;;10.85;5.45;;;11.50;97.10;;;;;;5032296;28;20056;-86
2022/05/22 03:41:51;;;;;;;13.27;5.27;;;11.50;97.10;;;;;;5017126;28;20025;-86
2022/05/22 03:44:17;;;;;;;8.88;4.90;;;11.50;97.20;;;;;;5016955;28;20026;-86
2022/05/22 03:46:44;;;;;;;13.87;6.03;;;11.50;97.20;;;;;;5017275;28;20508;-86
2022/05/22 03:49:10;;;;;;;8.45;4.65;;;11.50;97.20;;;;;;4999480;28;20057;-86
2022/05/22 03:51:36;;;;;;;13.97;5.37;;;11.50;97.30;;;;;;5017191;28;20017;-86
2022/05/22 03:54:02;;;;;;;9.75;5.15;;;11.40;97.30;;;;;;5015494;28;20135;-87
2022/05/22 03:56:28;;;;;;;13.37;6.10;;;11.40;97.40;;;;;;5016519;28;20490;-86
2022/05/22 03:58:53;;;;;;;9.00;5.40;;;11.40;97.40;;;;;;5032472;28;20037;-86
2022/05/22 04:01:19;;;;;;;11.32;5.82;;;11.40;97.50;;;;;;4999015;28;20061;-86
2022/05/22 04:03:45;;;;;;;9.23;5.00;;;11.40;97.50;;;;;;5016896;28;20022;-87
2022/05/22 04:06:11;;;;;;;11.50;5.50;;;11.40;97.60;;;;;;5016018;28;20037;-87
2022/05/22 04:08:38;;;;;;;9.48;5.03;;;11.40;97.60;;;;;;5032444;28;20030;-86
2022/05/22 04:11:10;;;;;;;11.85;5.05;;;11.40;97.70;;;;;;5015582;28;20064;-87
2022/05/22 04:13:36;;;;;;;9.73;5.25;;;11.40;97.80;;;;;;5031752;28;20433;-87
2022/05/22 04:16:02;;;;;;;13.57;5.57;;;11.40;97.80;;;;;;4998267;28;20063;-85
2022/05/22 04:18:28;;;;;;;14.73;5.75;;;11.40;97.90;;;;;;5016385;28;20076;-85
2022/05/22 04:20:53;;;;;;;10.10;5.10;;;11.40;97.90;;;;;;5015369;28;20034;-86
2022/05/22 04:26:04;;;;;;;13.52;5.75;;;11.50;98.10;;;;;;5016616;28;20088;-87
2022/05/22 04:28:30;;;;;;;8.93;4.85;;;11.50;98.10;;;;;;5031902;28;20450;-86
2022/05/22 04:30:56;;;;;;;8.80;4.65;;;11.50;98.40;;;;;;5014779;28;20041;-87
2022/05/22 04:33:22;;;;;;;13.40;5.20;;;11.60;98.20;;;;;;5015082;28;20030;-87
2022/05/22 04:35:49;;;;;;;10.40;4.72;;;11.60;98.30;;;;;;5031436;28;20030;-87
2022/05/22 04:38:15;;;;;;;11.13;5.32;;;11.70;98.30;;;;;;5016017;28;20482;-86
2022/05/22 04:40:42;;;;;;;14.32;6.05;;;11.70;98.40;;;;;;4998110;28;20025;-87
2022/05/22 04:43:09;;;;;;;12.73;5.63;;;11.80;98.50;;;;;;5016067;28;20034;-87
2022/05/22 04:45:39;;;;;;;9.13;5.53;;;11.80;98.60;;;;;;5014336;28;20034;-87
2022/05/22 04:48:05;;;;;;;8.80;5.53;;;11.80;98.60;;;;;;4998585;28;20036;-86
2022/05/22 04:50:31;;;;;;;11.75;5.18;;;11.90;98.70;;;;;;5031133;28;20034;-87
2022/05/22 04:52:57;;;;;;;13.18;5.63;;;12.00;98.80;;;;;;5014328;28;20136;-87
2022/05/22 04:55:22;;;;;;;10.32;5.55;;;12.00;98.80;;;;;;5006387;28;20029;-87
2022/05/22 04:57:48;;;;;;;10.75;5.45;;;12.10;98.90;;;;;;5033464;28;20454;-87
2022/05/22 05:00:14;;;;;;;13.50;5.50;;;12.10;98.90;;;;;;5017789;28;20064;-87
2022/05/22 05:02:40;;;;;;;10.45;5.55;;;12.20;98.90;;;;;;5001410;28;20087;-87
2022/05/22 05:05:08;;;;;;;12.05;5.53;;;12.20;98.90;;;;;;5035065;28;20034;-87
2022/05/22 05:07:38;;;;;;;10.20;5.65;;;12.30;98.90;;;;;;5034110;28;20458;-87
2022/05/22 05:10:04;;;;;;;11.15;5.45;;;12.30;98.90;;;;;;5035151;28;20113;-87
2022/05/22 05:12:30;;;;;;;11.05;5.47;;;12.40;98.90;;;;;;5035091;28;20029;-86
2022/05/22 05:14:56;;;;;;;11.10;6.28;;;12.40;99.00;;;;;;5017754;28;20509;-87
2022/05/22 05:17:22;;;;;;;12.80;7.03;;;12.50;99.00;;;;;;5035231;28;20057;-87
2022/05/22 05:19:47;;;;;;;11.48;6.22;;;12.40;99.00;;;;;;5017474;28;20057;-87
2022/05/22 05:22:13;;;;;;;13.93;7.07;;;12.60;99.00;;;;;;5017313;28;20033;-87
2022/05/22 05:24:39;;;;;;;12.35;6.70;;;12.60;99.00;;;;;;5017212;28;20029;-87
2022/05/22 05:27:05;;;;;;;12.18;6.90;;;12.70;99.00;;;;;;5032761;28;20080;-84
2022/05/22 05:29:31;;;;;;;16.23;7.55;;;12.70;99.00;;;;;;5033367;28;20072;-77
2022/05/22 05:31:56;;;;;;;14.90;7.82;;;12.80;99.00;;;;;;5034625;28;20029;-85
2022/05/22 05:34:22;;;;;;;13.30;7.13;;;12.80;98.90;;;;;;5033510;28;20022;-87
2022/05/22 05:36:49;;;;;;;13.60;7.03;;;12.90;98.90;;;;;;5017360;28;20047;-86
2022/05/22 05:39:14;;;;;;;13.82;7.60;;;13.00;98.90;;;;;;5034685;28;20128;-88
2022/05/22 05:41:41;;;;;;;15.45;7.93;;;13.10;98.90;;;;;;5034647;28;20556;-88
2022/05/22 05:44:07;;;;;;;15.45;9.43;;;13.10;98.80;;;;;;5033730;28;20458;-86
2022/05/22 05:46:37;;;;;;;14.93;8.52;;;13.10;98.80;;;;;;5034626;28;20033;-84
2022/05/22 05:49:07;;;;;;;17.90;9.45;;;13.20;98.70;;;;;;5034127;28;20021;-85
2022/05/22 05:51:35;;;;;;;18.50;10.27;;;13.20;98.70;;;;;;5049875;28;20017;-86
2022/05/22 05:54:01;;;;;;;17.65;11.02;;;13.30;98.60;;;;;;5016648;28;20042;-86
2022/05/22 05:56:27;;;;;;;18.88;11.20;;;13.30;98.50;;;;;;5033254;28;20052;-86
2022/05/22 05:58:53;;;;;;;22.48;12.10;;;13.30;98.40;;;;;;5013212;28;20116;-85
2022/05/22 06:01:20;;;;;;;20.17;13.05;;;13.40;98.40;;;;;;5017302;28;20017;-87
2022/05/22 06:03:46;;;;;;;21.88;14.23;;;13.40;98.30;;;;;;5033365;28;20014;-86
2022/05/22 06:06:13;;;;;;;21.83;12.73;;;13.50;98.40;;;;;;5033009;28;20075;-79
2022/05/22 06:08:42;;;;;;;16.65;10.32;;;13.50;98.00;;;;;;5016077;28;20450;-80
2022/05/22 06:11:08;;;;;;;21.83;9.95;;;13.60;97.80;;;;;;5032436;28;20029;-80
2022/05/22 06:13:35;;;;;;;19.48;8.88;;;13.60;97.60;;;;;;5016239;28;20386;-78
2022/05/22 06:16:03;;;;;;;13.27;6.60;;;13.60;97.50;;;;;;4999931;28;20022;-79
2022/05/22 06:18:29;;;;;;;15.85;7.38;;;13.70;97.40;;;;;;5016497;28;20026;-79
2022/05/22 06:20:55;;;;;;;14.32;6.43;;;13.70;97.20;;;;;;5033633;28;20036;-80
2022/05/22 06:23:20;;;;;;;12.52;6.22;;;13.70;97.10;;;;;;5016558;28;20095;-78
2022/05/22 06:25:46;;;;;;;14.00;4.80;;;13.80;97.30;;;;;;4997735;28;20037;-80
2022/05/22 06:28:13;;;;;;;11.82;3.95;;;13.80;96.80;;;;;;4996869;28;20038;-78
2022/05/22 06:30:38;;;;;;;8.85;4.10;;;13.90;96.70;;;;;;4999279;28;20087;-80
2022/05/22 06:33:08;;;;;;;10.65;4.35;;;13.90;96.50;;;;;;5020920;28;20025;-80
2022/05/22 06:35:34;;;;;;;14.65;4.97;;;14.00;96.40;;;;;;5015362;28;20021;-80
2022/05/22 06:38:01;;;;;;;12.07;4.50;;;14.00;96.20;;;;;;5032997;28;20125;-79
2022/05/22 06:40:27;;;;;;;8.25;3.58;;;14.00;96.10;;;;;;5053281;28;20052;-80
2022/05/22 06:42:52;;;;;;;12.75;4.72;;;14.10;96.00;;;;;;5019056;28;20036;-78
2022/05/22 06:45:22;;;;;;;12.82;4.30;;;14.10;95.80;;;;;;4994578;28;20030;-79
2022/05/22 06:47:49;;;;;;;9.48;3.53;;;14.20;95.70;;;;;;5013612;28;20060;-79
2022/05/22 06:50:18;;;;;;;8.95;2.90;;;14.20;95.50;;;;;;5012332;28;20097;-79
2022/05/22 06:52:44;;;;;;;12.05;3.00;;;14.30;95.40;;;;;;5012123;28;20034;-79
2022/05/22 06:55:11;;;;;;;10.45;3.22;;;14.30;95.30;;;;;;5012313;28;20029;-78
2022/05/22 06:57:38;;;;;;;7.15;2.70;;;14.30;95.20;;;;;;5012259;28;20026;-78
2022/05/22 07:00:08;;;;;;;8.73;2.80;;;14.40;95.00;;;;;;5012259;28;20026;-78
2022/05/22 07:02:36;;;;;;;7.60;2.65;;;14.40;94.90;;;;;;5012479;28;20022;-86
2022/05/22 07:05:03;;;;;;;9.25;3.13;;;14.50;94.80;;;;;;5012534;28;20053;-87
2022/05/22 07:07:29;;;;;;;10.48;3.20;;;14.50;94.60;;;;;;5012386;28;20417;-87
2022/05/22 07:09:55;;;;;;;9.20;3.55;;;14.60;94.60;;;;;;4996166;28;20029;-85
2022/05/22 07:12:22;;;;;;;12.75;3.72;;;14.70;94.50;;;;;;5012494;28;20026;-85
2022/05/22 07:14:48;;;;;;;8.38;3.42;;;14.70;94.30;;;;;;5012498;28;20045;-87
2022/05/22 07:17:16;;;;;;;11.23;3.83;;;14.70;94.30;;;;;;5012709;28;20022;-85
2022/05/22 07:19:43;;;;;;;15.40;3.85;;;14.80;94.30;;;;;;5023861;28;20032;-88
2022/05/22 07:22:08;;;;;;;9.35;3.05;;;14.80;94.20;;;;;;5015867;28;20470;-89
2022/05/22 07:24:34;;;;;;;12.35;3.10;;;14.90;94.10;;;;;;5016251;28;20029;-84
2022/05/22 07:27:02;;;;;;;9.57;3.55;;;15.00;94.00;;;;;;4999409;28;20124;-88
2022/05/22 07:29:28;;;;;;;9.05;3.22;;;15.00;93.80;;;;;;5016003;28;20117;-86
2022/05/22 07:31:56;;;;;;;7.85;2.97;;;15.10;93.80;;;;;;4995908;28;20485;-89
2022/05/22 07:34:24;;;;;;;6.25;3.05;;;15.10;93.70;;;;;;5013257;28;20351;-87
2022/05/22 07:36:56;;;;;;;11.50;3.38;;;15.20;93.60;;;;;;5026709;28;20033;-88
2022/05/22 07:39:23;;;;;;;6.90;2.50;;;15.30;93.50;;;;;;5023429;28;20022;-89
2022/05/22 07:41:48;;;;;;;8.48;1.65;;;15.30;93.20;;;;;;4997313;28;20022;-88
2022/05/22 07:44:14;;;;;;;7.22;2.03;;;15.40;92.90;;;;;;5027665;28;20071;-86
2022/05/22 07:46:40;;;;;;;9.65;1.85;;;15.40;92.60;;;;;;5032631;28;20029;-88
2022/05/22 07:49:05;;;;;;;9.23;2.78;;;15.50;92.50;;;;;;4994038;28;20037;-90
2022/05/22 07:51:31;;;;;;;6.88;2.03;;;15.50;92.30;;;;;;4984100;28;20030;-89
2022/05/22 07:53:57;;;;;;;8.85;1.73;;;15.60;92.10;;;;;;4999939;28;20128;-88
2022/05/22 07:56:23;;;;;;;10.32;1.20;;;15.60;91.80;;;;;;4983598;28;20477;-85
2022/05/22 07:58:50;;;;;;;8.68;1.42;;;15.70;91.50;;;;;;5017075;28;20030;-90
2022/05/22 09:08:19;;;;;;;4.78;0.80;;;17.30;79.80;;;;;;4974215;28;20078;-76
2022/05/22 09:11:08;;;;;;;3.13;0.80;;;17.40;79.00;;;;;;4957297;28;20109;-77
2022/05/22 09:13:57;;;;;;;3.15;0.70;;;17.50;78.60;;;;;;4957183;28;20035;-76
2022/05/22 09:17:01;;;;;;;7.80;0.77;;;17.60;78.20;;;;;;4967101;28;20475;-76
2022/05/22 09:19:47;;;;;;;5.70;0.98;;;17.70;76.40;;;;;;4969533;28;20556;-76
2022/05/22 09:22:31;;;;;;;6.93;0.88;;;17.80;76.10;;;;;;5002374;28;20036;-77
2022/05/22 09:25:12;;;;;;;6.28;0.60;;;17.90;76.00;;;;;;5014001;28;20045;-76
2022/05/22 09:27:55;;;;;;;7.20;0.55;;;18.00;75.10;;;;;;5014695;28;20041;-76
2022/05/22 09:30:58;;;;;;;6.35;1.20;;;18.00;74.00;;;;;;5014413;28;20029;-76
2022/05/22 09:36:38;;;;;;;4.57;0.70;;;18.30;73.10;;;;;;5014456;28;20033;-76
2022/05/22 09:39:29;;;;;;;5.30;0.80;;;18.40;72.40;;;;;;5012882;28;20478;-76
2022/05/22 09:42:27;;;;;;;5.53;0.70;;;18.40;71.40;;;;;;5013559;28;20419;-76
2022/05/22 09:45:20;;;;;;;4.13;0.60;;;18.50;70.10;;;;;;5013215;28;20018;-76
2022/05/22 09:48:07;;;;;;;7.10;1.40;;;18.60;69.10;;;;;;4996262;28;20133;-78
2022/05/22 09:50:47;;;;;;;3.38;0.73;;;18.60;68.60;;;;;;5012867;28;20041;-76
2022/05/22 09:53:36;;;;;;;7.10;0.55;;;18.70;68.60;;;;;;5017596;28;20031;-77
2022/05/22 09:59:50;;;;;;;4.75;0.65;;;18.80;68.50;;;;;;5025599;28;20507;-77
2022/05/22 10:02:45;;;;;;;4.10;0.70;;;19.00;68.60;;;;;;5033281;28;20068;-77
2022/05/22 10:10:46;;;;;;;;;;;19.20;66.70;;;;;;5033362;28;20106;-80
2022/05/22 10:16:46;;;;;;;6.05;1.40;;;19.20;66.80;;;;;;5026237;28;20095;-79
2022/05/22 10:19:36;;;;;;;4.75;1.00;;;19.20;67.00;;;;;;5033299;28;20017;-79
2022/05/22 10:25:38;;;;;;;4.78;1.52;;;19.30;67.70;;;;;;5029938;28;20052;-80
2022/05/22 10:28:16;;;;;;;5.67;1.53;;;19.40;67.80;;;;;;5027291;28;20034;-79
2022/05/22 10:31:09;;;;;;;5.07;1.45;;;19.50;67.70;;;;;;5015141;28;20029;-79
2022/05/22 10:33:44;;;;;;;5.95;1.42;;;19.70;67.30;;;;;;5032992;28;20061;-80
2022/05/22 10:36:32;;;;;;;4.80;1.10;;;19.80;67.30;;;;;;5023820;28;20075;-80
2022/05/22 10:39:09;;;;;;;5.10;1.23;;;20.10;66.90;;;;;;5032980;28;20042;-79
2022/05/22 10:44:54;;;;;;;7.47;1.73;;;20.40;65.70;;;;;;5028159;28;20075;-80
2022/05/22 10:47:29;;;;;;;7.18;1.48;;;20.50;65.70;;;;;;5005907;28;20046;-79
2022/05/22 10:52:58;;;;;;;4.60;0.90;;;21.00;65.10;;;;;;5029461;28;20056;-80
2022/05/22 10:55:43;;;;;;;5.70;1.67;;;21.20;65.40;;;;;;5013403;28;20037;-79
2022/05/22 11:01:17;;;;;;;4.18;1.20;;;21.70;63.90;;;;;;5031096;28;20064;-80
2022/05/22 11:03:43;;;;;;;4.70;1.02;;;21.80;63.60;;;;;;5010288;28;20053;-80
2022/05/22 11:06:34;;;;;;;5.65;1.00;;;22.00;62.90;;;;;;5028179;28;20076;-80
2022/05/22 11:09:00;;;;;;;5.13;0.95;;;22.20;62.10;;;;;;5010496;28;20037;-80
2022/05/22 11:11:30;;;;;;;3.65;0.70;;;22.50;62.00;;;;;;5013042;28;20038;-79
2022/05/22 11:14:19;;;;;;;5.88;1.10;;;22.70;60.70;;;;;;5026143;28;20026;-79
2022/05/22 11:17:22;;;;;;;4.70;1.25;;;23.00;59.20;;;;;;5030535;28;20048;-79
2022/05/22 11:23:34;;;;;;;7.43;1.45;;;23.50;58.10;;;;;;5030958;28;20044;-80
2022/05/22 11:26:18;;;;;;;2.80;0.90;;;23.70;57.20;;;;;;4975779;28;20034;-80
2022/05/22 11:38:01;;;;;;;4.88;1.00;;;24.80;55.90;;;;;;5035714;28;20492;-80
2022/05/22 11:43:44;;;;;;;6.32;1.17;;;25.10;54.50;;;;;;5035999;28;20044;-80
2022/05/22 11:46:44;;;;;;;5.32;0.73;;;25.40;53.90;;;;;;5017552;28;20036;-78
2022/05/22 11:52:55;;;;;;;3.75;1.02;;;25.80;51.90;;;;;;5036011;28;20095;-80
2022/05/22 11:56:02;;;;;;;5.20;1.17;;;26.10;51.10;;;;;;5018169;28;20025;-79
2022/05/22 12:02:01;;;;;;;5.70;1.30;;;26.60;51.00;;;;;;5036402;28;20043;-80
2022/05/22 12:08:27;;;;;;;5.70;1.05;;;27.10;49.50;;;;;;5035707;28;20083;-79
2022/05/22 12:11:12;;;;;;;5.13;1.45;;;27.20;48.80;;;;;;5017825;28;20034;-78
2022/05/22 12:14:16;;;;;;;5.85;1.40;;;27.40;48.30;;;;;;5035744;28;20057;-79
2022/05/22 12:26:06;;;;;;;4.82;1.33;;;28.20;47.90;;;;;;5001770;28;20172;-79
2022/05/22 12:34:54;;;;;;;3.63;1.20;;;29.00;46.90;;;;;;5035064;28;20080;-81
2022/05/22 12:37:44;;;;;;;3.88;1.33;;;29.30;47.30;;;;;;5035240;28;20033;-80
2022/05/22 12:40:37;;;;;;;5.38;1.60;;;29.50;46.50;;;;;;5035586;28;20462;-80
2022/05/22 12:43:23;;;;;;;3.10;1.10;;;29.70;45.70;;;;;;5034054;28;20022;-80
2022/05/22 12:49:38;;;;;;;4.15;1.40;;;30.10;45.20;;;;;;5035204;28;20057;-79
2022/05/22 12:52:09;;;;;;;4.70;1.40;;;30.40;45.10;;;;;;5035546;28;20069;-80
2022/05/22 12:55:09;;;;;;;5.15;1.23;;;30.60;45.20;;;;;;5035453;28;20023;-81
2022/05/22 12:57:55;;;;;;;5.28;1.15;;;30.70;44.10;;;;;;5034199;28;20031;-80
2022/05/22 13:03:26;;;;;;;2.90;0.85;;;31.20;43.60;;;;;;5034685;28;20408;-81
2022/05/22 13:06:02;;;;;;;5.25;1.30;;;31.40;43.70;;;;;;5034957;28;20022;-80
2022/05/22 13:08:41;;;;;;;4.57;1.25;;;31.50;42.80;;;;;;5017304;28;20482;-80
2022/05/22 13:11:09;;;;;;;5.75;1.40;;;31.80;42.60;;;;;;5034718;28;20046;-81
2022/05/22 13:14:03;;;;;;;5.65;1.33;;;31.80;42.70;;;;;;5016706;28;20057;-79
2022/05/22 13:16:49;;;;;;;3.63;0.95;;;32.00;42.10;;;;;;5017071;28;20028;-79
2022/05/22 13:19:33;;;;;;;5.80;1.13;;;32.10;41.30;;;;;;5033401;28;20087;-80
2022/05/22 13:24:55;;;;;;;2.78;0.95;;;32.30;41.00;;;;;;5034667;28;20036;-78
2022/05/22 13:27:36;;;;;;;5.55;1.30;;;32.40;41.20;;;;;;5034479;28;20021;-79
2022/05/22 13:30:05;;;;;;;4.85;1.10;;;32.50;40.30;;;;;;5033223;28;20033;-81
2022/05/22 13:32:56;;;;;;;4.90;1.70;;;32.60;40.70;;;;;;5033150;28;20029;-80
2022/05/22 13:35:26;;;;;;;5.32;1.20;;;32.80;39.90;;;;;;5016286;28;20014;-80
2022/05/22 13:40:57;;;;;;;5.32;1.25;;;33.00;39.90;;;;;;5034425;28;20040;-81
2022/05/22 13:43:44;;;;;;;3.92;0.93;;;33.10;39.10;;;;;;5016699;28;20495;-80
2022/05/22 13:46:24;;;;;;;3.35;1.13;;;33.30;39.10;;;;;;5016908;28;20032;-80
2022/05/22 13:49:19;;;;;;;4.57;1.02;;;33.40;39.60;;;;;;5015976;28;20057;-81
2022/05/22 14:11:19;;;;;;;3.03;1.17;;;34.20;38.40;;;;;;5375895;23;20137;-81
2022/05/22 14:13:59;;;;;;;4.82;0.90;;;34.20;37.90;;;;;;4994413;28;20084;-81
2022/05/22 14:16:38;;;;;;;5.72;1.13;;;34.40;37.50;;;;;;4994412;28;20021;-81
2022/05/22 14:19:10;;;;;;;4.47;1.15;;;34.50;36.80;;;;;;4994546;28;20425;-83
2022/05/22 14:21:43;;;;;;;3.58;1.02;;;34.40;36.70;;;;;;5009503;28;20022;-83
2022/05/22 14:27:32;;;;;;;4.68;1.15;;;34.30;36.30;;;;;;4994453;28;20122;-80
2022/05/22 14:30:15;;;;;;;4.90;1.13;;;34.10;36.90;;;;;;4994503;28;20030;-79
2022/05/22 14:32:45;;;;;;;5.60;1.58;;;33.80;37.00;;;;;;4994641;28;20374;-80
2022/05/22 14:35:15;;;;;;;5.45;1.10;;;33.70;37.10;;;;;;5009284;28;20062;-83
2022/05/22 14:37:42;;;;;;;6.32;1.85;;;33.60;37.20;;;;;;4994139;28;20176;-84
2022/05/22 14:40:24;;;;;;;4.10;1.38;;;33.70;37.40;;;;;;4992803;28;20057;-79
2022/05/22 14:42:57;;;;;;;3.92;1.17;;;33.90;37.20;;;;;;4994089;28;20027;-80
2022/05/22 14:45:25;;;;;;;;;;;34.00;37.10;;;;;;4993004;28;20478;-81
2022/05/22 14:47:52;;;;;;;4.28;1.52;;;34.10;37.30;;;;;;4993942;28;19906;-82
2022/05/22 14:50:19;;;;;;;5.57;1.30;;;34.20;37.30;;;;;;4994456;28;20062;-73
2022/05/22 14:52:50;;;;;;;4.60;1.33;;;34.30;36.90;;;;;;4992906;28;20565;-82
2022/05/22 14:55:24;;;;;;;5.53;1.10;;;34.30;37.50;;;;;;4994589;28;20470;-85
2022/05/22 14:58:04;;;;;;;5.50;1.45;;;34.40;36.70;;;;;;5009474;28;20027;-76
2022/05/22 15:00:48;;;;;;;6.18;1.30;;;34.60;36.20;;;;;;4997915;28;20030;-77
2022/05/22 15:03:21;;;;;;;5.20;1.50;;;34.60;36.20;;;;;;5012979;28;20034;-74
2022/05/22 15:05:53;;;;;;;4.47;1.40;;;34.70;36.20;;;;;;4997738;28;20027;-77
2022/05/22 15:08:28;;;;;;;5.72;1.98;;;34.80;36.00;;;;;;4996728;28;20442;-83
2022/05/22 15:10:58;;;;;;;5.35;1.90;;;34.80;36.00;;;;;;4996600;28;20096;-85
2022/05/22 15:13:29;;;;;;;5.28;1.42;;;34.70;35.90;;;;;;4996601;28;20046;-81
2022/05/22 15:16:21;;;;;;;5.35;1.83;;;34.70;36.10;;;;;;4997827;28;20034;-75
2022/05/22 15:21:40;;;;;;;7.95;1.45;;;34.40;36.00;;;;;;4998116;28;20072;-76
2022/05/22 15:26:58;;;;;;;4.55;1.40;;;34.30;36.20;;;;;;4997881;28;20037;-81
2022/05/22 15:29:28;;;;;;;5.40;1.50;;;34.10;36.10;;;;;;4996093;28;20038;-82
2022/05/22 15:31:53;;;;;;;3.50;1.42;;;33.80;36.20;;;;;;4997530;28;20023;-83
2022/05/22 15:34:26;;;;;;;6.35;1.77;;;33.50;36.30;;;;;;4996260;28;20371;-81
2022/05/22 15:36:52;;;;;;;5.95;2.25;;;33.30;36.10;;;;;;4997219;28;20081;-82
2022/05/22 15:39:30;;;;;;;6.50;2.10;;;32.90;36.30;;;;;;5012461;28;20387;-82
2022/05/22 15:42:14;;;;;;;6.15;1.77;;;32.50;36.80;;;;;;4997089;28;20093;-84
2022/05/22 15:45:11;;;;;;;5.32;1.48;;;32.10;37.30;;;;;;4997559;28;20018;-80
2022/05/22 15:47:37;;;;;;;7.05;2.03;;;31.80;37.50;;;;;;5007820;28;20034;-76
2022/05/22 15:53:04;;;;;;;6.72;2.05;;;31.30;37.80;;;;;;4997823;28;20096;-76
2022/05/22 15:55:31;;;;;;;4.55;1.60;;;31.20;38.00;;;;;;4997341;28;20113;-85
2022/05/22 15:57:57;;;;;;;5.28;1.77;;;31.00;38.40;;;;;;5012666;28;20194;-81
2022/05/22 16:00:25;;;;;;;5.25;1.40;;;30.90;38.80;;;;;;4979906;28;20034;-83
2022/05/22 16:02:54;;;;;;;5.32;1.83;;;30.80;38.30;;;;;;4996948;28;20521;-77
2022/05/22 16:05:22;;;;;;;6.30;2.00;;;30.70;38.40;;;;;;4996433;28;20034;-77
2022/05/22 16:07:50;;;;;;;6.72;1.90;;;30.50;38.80;;;;;;4996641;28;20036;-76
2022/05/22 16:10:17;;;;;;;4.75;1.45;;;30.40;39.10;;;;;;4994553;28;20070;-76
2022/05/22 16:12:43;;;;;;;5.15;1.50;;;30.30;39.00;;;;;;5009100;28;20027;-76